sensor_id;sensor_type;location;lat;lon;timestamp;temperature;humidity
5419;DHT22;2732;52.092;11.556;2023-07-29T00:00:35;19.40;99.90
5419;DHT22;2732;52.092;11.556;2023-07-29T00:05:37;19.30;99.90
5419;DHT22;2732;52.092;11.556;2023-07-29T00:10:38;19.30;99.90
5419;DHT22;2732;52.092;11.556;2023-07-29T00:15:39;19.20;99.90
5419;DHT22;2732;52.092;11.556;2023-07-29T00:20:39;19.20;99.90
5419;DHT22;2732;52.092;11.556;2023-07-29T00:25:41;19.10;99.90
5419;DHT22;2732;52.092;11.556;2023-07-29T00:30:42;19.00;99.90
5419;DHT22;2732;52.092;11.556;2023-07-29T00:35:43;19.00;99.90
5419;DHT22;2732;52.092;11.556;2023-07-29T00:40:43;18.90;99.90
5419;DHT22;2732;52.092;11.556;2023-07-29T00:45:44;18.90;99.90
5419;DHT22;2732;52.092;11.556;2023-07-29T00:50:48;18.90;99.90
5419;DHT22;2732;52.092;11.556;2023-07-29T00:55:50;18.90;99.90
5419;DHT22;2732;52.092;11.556;2023-07-29T01:00:50;18.90;99.90
5419;DHT22;2732;52.092;11.556;2023-07-29T01:17:14;18.80;99.90
5419;DHT22;2732;52.092;11.556;2023-07-29T01:22:20;18.70;99.90
5419;DHT22;2732;52.092;11.556;2023-07-29T01:27:21;18.70;99.90
5419;DHT22;2732;52.092;11.556;2023-07-29T01:37:52;18.60;99.90
5419;DHT22;2732;52.092;11.556;2023-07-29T01:43:00;18.60;99.90
5419;DHT22;2732;52.092;11.556;2023-07-29T01:48:01;18.50;99.90
5419;DHT22;2732;52.092;11.556;2023-07-29T01:53:02;18.50;99.90
5419;DHT22;2732;52.092;11.556;2023-07-29T01:58:02;18.50;99.90
5419;DHT22;2732;52.092;11.556;2023-07-29T02:03:03;18.50;99.90
5419;DHT22;2732;52.092;11.556;2023-07-29T02:08:04;18.40;99.90
5419;DHT22;2732;52.092;11.556;2023-07-29T02:13:04;18.40;99.90
5419;DHT22;2732;52.092;11.556;2023-07-29T02:18:07;18.30;99.90
5419;DHT22;2732;52.092;11.556;2023-07-29T02:23:08;18.30;99.90
5419;DHT22;2732;52.092;11.556;2023-07-29T02:28:09;18.20;99.90
5419;DHT22;2732;52.092;11.556;2023-07-29T02:33:10;18.10;99.90
5419;DHT22;2732;52.092;11.556;2023-07-29T02:38:11;18.00;99.90
5419;DHT22;2732;52.092;11.556;2023-07-29T02:43:11;17.90;99.90
5419;DHT22;2732;52.092;11.556;2023-07-29T02:48:12;17.90;99.90
5419;DHT22;2732;52.092;11.556;2023-07-29T02:53:13;17.80;99.90
5419;DHT22;2732;52.092;11.556;2023-07-29T02:58:14;17.70;99.90
5419;DHT22;2732;52.092;11.556;2023-07-29T03:03:14;17.70;99.90
5419;DHT22;2732;52.092;11.556;2023-07-29T03:08:15;17.70;99.90
5419;DHT22;2732;52.092;11.556;2023-07-29T03:13:16;17.60;99.90
5419;DHT22;2732;52.092;11.556;2023-07-29T03:18:16;17.60;99.90
5419;DHT22;2732;52.092;11.556;2023-07-29T03:23:17;17.60;99.90
5419;DHT22;2732;52.092;11.556;2023-07-29T03:28:17;17.60;99.90
5419;DHT22;2732;52.092;11.556;2023-07-29T03:33:18;17.50;99.90
5419;DHT22;2732;52.092;11.556;2023-07-29T03:38:19;17.50;99.90
5419;DHT22;2732;52.092;11.556;2023-07-29T03:43:20;17.50;99.90
5419;DHT22;2732;52.092;11.556;2023-07-29T03:48:20;17.50;99.90
5419;DHT22;2732;52.092;11.556;2023-07-29T03:53:21;17.40;99.90
5419;DHT22;2732;52.092;11.556;2023-07-29T03:58:22;17.40;99.90
5419;DHT22;2732;52.092;11.556;2023-07-29T04:03:23;17.40;99.90
5419;DHT22;2732;52.092;11.556;2023-07-29T04:08:23;17.30;99.90
5419;DHT22;2732;52.092;11.556;2023-07-29T04:13:24;17.30;99.90
5419;DHT22;2732;52.092;11.556;2023-07-29T04:18:25;17.30;99.90
5419;DHT22;2732;52.092;11.556;2023-07-29T04:23:27;17.30;99.90
5419;DHT22;2732;52.092;11.556;2023-07-29T04:28:29;17.30;99.90
5419;DHT22;2732;52.092;11.556;2023-07-29T04:33:30;17.40;99.90
5419;DHT22;2732;52.092;11.556;2023-07-29T04:38:34;17.40;99.90
5419;DHT22;2732;52.092;11.556;2023-07-29T04:43:34;17.40;99.90
5419;DHT22;2732;52.092;11.556;2023-07-29T04:48:35;17.50;99.90
5419;DHT22;2732;52.092;11.556;2023-07-29T04:53:36;17.70;99.90
5419;DHT22;2732;52.092;11.556;2023-07-29T04:58:37;17.90;99.90
5419;DHT22;2732;52.092;11.556;2023-07-29T05:03:38;18.00;99.90
5419;DHT22;2732;52.092;11.556;2023-07-29T05:08:40;18.30;99.90
5419;DHT22;2732;52.092;11.556;2023-07-29T05:13:40;18.60;99.90
5419;DHT22;2732;52.092;11.556;2023-07-29T05:18:43;18.80;99.90
5419;DHT22;2732;52.092;11.556;2023-07-29T05:23:43;19.10;99.90
5419;DHT22;2732;52.092;11.556;2023-07-29T05:28:44;19.20;99.90
5419;DHT22;2732;52.092;11.556;2023-07-29T05:33:44;19.30;99.90
5419;DHT22;2732;52.092;11.556;2023-07-29T05:38:45;19.30;99.90
5419;DHT22;2732;52.092;11.556;2023-07-29T05:43:48;19.40;99.90
5419;DHT22;2732;52.092;11.556;2023-07-29T05:48:49;19.60;99.90
5419;DHT22;2732;52.092;11.556;2023-07-29T05:53:50;19.70;99.90
5419;DHT22;2732;52.092;11.556;2023-07-29T05:58:50;19.90;99.90
5419;DHT22;2732;52.092;11.556;2023-07-29T06:03:51;20.20;99.90
5419;DHT22;2732;52.092;11.556;2023-07-29T06:08:52;20.40;99.90
5419;DHT22;2732;52.092;11.556;2023-07-29T06:13:52;20.60;99.90
5419;DHT22;2732;52.092;11.556;2023-07-29T06:18:53;20.70;99.90
5419;DHT22;2732;52.092;11.556;2023-07-29T06:23:54;20.90;99.90
5419;DHT22;2732;52.092;11.556;2023-07-29T06:28:54;21.10;99.90
5419;DHT22;2732;52.092;11.556;2023-07-29T06:33:55;21.40;99.90
5419;DHT22;2732;52.092;11.556;2023-07-29T06:38:56;21.60;99.90
5419;DHT22;2732;52.092;11.556;2023-07-29T06:43:56;21.90;99.90
5419;DHT22;2732;52.092;11.556;2023-07-29T06:48:57;22.20;99.90
5419;DHT22;2732;52.092;11.556;2023-07-29T06:53:58;22.50;99.90
5419;DHT22;2732;52.092;11.556;2023-07-29T06:58:58;22.60;99.90
5419;DHT22;2732;52.092;11.556;2023-07-29T07:03:59;22.60;99.90
5419;DHT22;2732;52.092;11.556;2023-07-29T07:09:00;22.50;99.90
5419;DHT22;2732;52.092;11.556;2023-07-29T07:14:00;22.40;99.90
5419;DHT22;2732;52.092;11.556;2023-07-29T07:19:01;22.30;99.90
5419;DHT22;2732;52.092;11.556;2023-07-29T07:24:02;22.20;99.90
5419;DHT22;2732;52.092;11.556;2023-07-29T07:29:02;22.30;99.90
5419;DHT22;2732;52.092;11.556;2023-07-29T07:34:03;22.50;99.90
5419;DHT22;2732;52.092;11.556;2023-07-29T07:39:04;22.60;99.90
5419;DHT22;2732;52.092;11.556;2023-07-29T07:44:05;22.70;99.90
5419;DHT22;2732;52.092;11.556;2023-07-29T07:49:05;22.70;99.90
5419;DHT22;2732;52.092;11.556;2023-07-29T07:54:07;22.80;99.90
5419;DHT22;2732;52.092;11.556;2023-07-29T07:59:10;22.70;99.90
5419;DHT22;2732;52.092;11.556;2023-07-29T08:04:10;22.80;99.90
5419;DHT22;2732;52.092;11.556;2023-07-29T08:09:11;22.90;99.90
5419;DHT22;2732;52.092;11.556;2023-07-29T08:14:11;22.90;99.90
5419;DHT22;2732;52.092;11.556;2023-07-29T08:19:12;22.90;99.90
5419;DHT22;2732;52.092;11.556;2023-07-29T08:24:13;23.00;99.90
5419;DHT22;2732;52.092;11.556;2023-07-29T08:29:15;23.20;99.90
5419;DHT22;2732;52.092;11.556;2023-07-29T08:34:15;23.30;99.90
5419;DHT22;2732;52.092;11.556;2023-07-29T08:39:16;23.30;99.90
5419;DHT22;2732;52.092;11.556;2023-07-29T08:44:25;23.20;99.90
5419;DHT22;2732;52.092;11.556;2023-07-29T08:49:31;23.10;99.90
5419;DHT22;2732;52.092;11.556;2023-07-29T08:54:32;22.90;99.90
5419;DHT22;2732;52.092;11.556;2023-07-29T08:59:33;22.70;99.90
5419;DHT22;2732;52.092;11.556;2023-07-29T09:04:34;22.50;99.90
5419;DHT22;2732;52.092;11.556;2023-07-29T09:09:34;22.40;99.90
5419;DHT22;2732;52.092;11.556;2023-07-29T09:14:35;22.20;99.90
5419;DHT22;2732;52.092;11.556;2023-07-29T09:19:36;22.10;99.90
5419;DHT22;2732;52.092;11.556;2023-07-29T09:24:37;22.00;99.90
5419;DHT22;2732;52.092;11.556;2023-07-29T09:29:37;21.80;99.90
5419;DHT22;2732;52.092;11.556;2023-07-29T09:34:41;21.70;99.90
5419;DHT22;2732;52.092;11.556;2023-07-29T09:39:44;21.50;99.90
5419;DHT22;2732;52.092;11.556;2023-07-29T09:44:48;21.50;99.90
5419;DHT22;2732;52.092;11.556;2023-07-29T09:49:50;21.40;99.90
5419;DHT22;2732;52.092;11.556;2023-07-29T09:54:51;21.40;99.90
5419;DHT22;2732;52.092;11.556;2023-07-29T09:59:56;21.50;99.90
5419;DHT22;2732;52.092;11.556;2023-07-29T10:04:57;21.70;99.90
5419;DHT22;2732;52.092;11.556;2023-07-29T10:09:59;21.90;99.90
5419;DHT22;2732;52.092;11.556;2023-07-29T10:15:04;22.10;99.90
5419;DHT22;2732;52.092;11.556;2023-07-29T10:20:08;22.30;99.90
5419;DHT22;2732;52.092;11.556;2023-07-29T10:25:13;22.50;99.90
5419;DHT22;2732;52.092;11.556;2023-07-29T10:30:19;22.70;99.90
5419;DHT22;2732;52.092;11.556;2023-07-29T10:35:20;22.90;99.90
5419;DHT22;2732;52.092;11.556;2023-07-29T10:40:21;23.00;99.90
5419;DHT22;2732;52.092;11.556;2023-07-29T10:45:22;23.20;99.90
5419;DHT22;2732;52.092;11.556;2023-07-29T10:50:23;23.40;99.90
5419;DHT22;2732;52.092;11.556;2023-07-29T11:00:40;24.60;99.90
5419;DHT22;2732;52.092;11.556;2023-07-29T11:05:47;25.20;99.90
5419;DHT22;2732;52.092;11.556;2023-07-29T11:16:00;25.80;99.90
5419;DHT22;2732;52.092;11.556;2023-07-29T11:21:04;26.20;99.90
5419;DHT22;2732;52.092;11.556;2023-07-29T11:26:05;26.30;99.90
5419;DHT22;2732;52.092;11.556;2023-07-29T11:31:09;26.50;99.90
5419;DHT22;2732;52.092;11.556;2023-07-29T11:36:18;26.40;99.90
5419;DHT22;2732;52.092;11.556;2023-07-29T11:41:20;26.40;99.90
5419;DHT22;2732;52.092;11.556;2023-07-29T11:46:22;26.30;99.90
5419;DHT22;2732;52.092;11.556;2023-07-29T11:51:23;26.00;99.90
5419;DHT22;2732;52.092;11.556;2023-07-29T11:56:25;25.50;99.90
5419;DHT22;2732;52.092;11.556;2023-07-29T12:01:28;25.30;99.90
5419;DHT22;2732;52.092;11.556;2023-07-29T12:06:29;25.10;99.90
5419;DHT22;2732;52.092;11.556;2023-07-29T12:11:32;25.20;99.90
5419;DHT22;2732;52.092;11.556;2023-07-29T12:16:40;26.50;99.90
5419;DHT22;2732;52.092;11.556;2023-07-29T12:21:42;27.70;99.90
5419;DHT22;2732;52.092;11.556;2023-07-29T12:26:44;28.60;99.90
5419;DHT22;2732;52.092;11.556;2023-07-29T12:31:45;29.30;99.90
5419;DHT22;2732;52.092;11.556;2023-07-29T12:36:49;29.90;99.90
5419;DHT22;2732;52.092;11.556;2023-07-29T12:41:53;30.30;99.90
5419;DHT22;2732;52.092;11.556;2023-07-29T12:47:01;30.40;99.90
5419;DHT22;2732;52.092;11.556;2023-07-29T12:52:03;30.10;99.90
5419;DHT22;2732;52.092;11.556;2023-07-29T12:57:04;29.70;99.90
5419;DHT22;2732;52.092;11.556;2023-07-29T13:02:05;29.80;99.90
5419;DHT22;2732;52.092;11.556;2023-07-29T13:07:05;30.60;99.90
5419;DHT22;2732;52.092;11.556;2023-07-29T13:12:08;30.80;99.90
5419;DHT22;2732;52.092;11.556;2023-07-29T13:17:09;30.50;99.90
5419;DHT22;2732;52.092;11.556;2023-07-29T13:22:11;30.50;99.80
5419;DHT22;2732;52.092;11.556;2023-07-29T13:27:12;30.70;99.40
5419;DHT22;2732;52.092;11.556;2023-07-29T13:32:12;31.10;98.80
5419;DHT22;2732;52.092;11.556;2023-07-29T13:37:13;31.60;97.90
5419;DHT22;2732;52.092;11.556;2023-07-29T13:42:13;32.00;95.60
5419;DHT22;2732;52.092;11.556;2023-07-29T13:47:14;32.00;94.60
5419;DHT22;2732;52.092;11.556;2023-07-29T13:52:15;32.20;93.30
5419;DHT22;2732;52.092;11.556;2023-07-29T13:57:15;32.20;93.00
5419;DHT22;2732;52.092;11.556;2023-07-29T14:02:16;31.60;93.00
5419;DHT22;2732;52.092;11.556;2023-07-29T14:07:16;31.70;92.20
5419;DHT22;2732;52.092;11.556;2023-07-29T14:12:17;31.90;91.30
5419;DHT22;2732;52.092;11.556;2023-07-29T14:17:18;32.30;90.80
5419;DHT22;2732;52.092;11.556;2023-07-29T14:22:18;32.30;90.50
5419;DHT22;2732;52.092;11.556;2023-07-29T14:27:19;32.30;89.70
5419;DHT22;2732;52.092;11.556;2023-07-29T14:32:19;32.10;86.10
5419;DHT22;2732;52.092;11.556;2023-07-29T14:37:20;32.20;85.40
5419;DHT22;2732;52.092;11.556;2023-07-29T14:42:21;32.30;85.80
5419;DHT22;2732;52.092;11.556;2023-07-29T14:47:22;32.10;85.00
5419;DHT22;2732;52.092;11.556;2023-07-29T14:52:23;31.80;84.10
5419;DHT22;2732;52.092;11.556;2023-07-29T14:57:24;31.90;83.40
5419;DHT22;2732;52.092;11.556;2023-07-29T15:02:24;32.10;83.20
5419;DHT22;2732;52.092;11.556;2023-07-29T15:07:25;32.30;82.40
5419;DHT22;2732;52.092;11.556;2023-07-29T15:12:26;32.40;81.10
5419;DHT22;2732;52.092;11.556;2023-07-29T15:17:27;32.60;80.20
5419;DHT22;2732;52.092;11.556;2023-07-29T15:22:30;32.40;79.70
5419;DHT22;2732;52.092;11.556;2023-07-29T15:27:31;31.80;78.90
5419;DHT22;2732;52.092;11.556;2023-07-29T15:32:32;31.30;78.40
5419;DHT22;2732;52.092;11.556;2023-07-29T15:37:33;31.30;76.30
5419;DHT22;2732;52.092;11.556;2023-07-29T15:42:33;31.50;75.50
5419;DHT22;2732;52.092;11.556;2023-07-29T15:47:34;31.50;76.10
5419;DHT22;2732;52.092;11.556;2023-07-29T15:52:35;31.20;74.30
5419;DHT22;2732;52.092;11.556;2023-07-29T15:57:36;31.20;74.30
5419;DHT22;2732;52.092;11.556;2023-07-29T16:02:37;31.30;73.50
5419;DHT22;2732;52.092;11.556;2023-07-29T16:07:38;31.00;73.00
5419;DHT22;2732;52.092;11.556;2023-07-29T16:12:39;31.10;71.80
5419;DHT22;2732;52.092;11.556;2023-07-29T16:17:39;31.10;71.10
5419;DHT22;2732;52.092;11.556;2023-07-29T16:22:40;31.10;70.90
5419;DHT22;2732;52.092;11.556;2023-07-29T16:27:41;30.90;70.30
5419;DHT22;2732;52.092;11.556;2023-07-29T16:32:41;30.90;71.30
5419;DHT22;2732;52.092;11.556;2023-07-29T16:37:42;30.90;71.70
5419;DHT22;2732;52.092;11.556;2023-07-29T16:42:42;30.80;71.50
5419;DHT22;2732;52.092;11.556;2023-07-29T16:47:43;30.40;71.20
5419;DHT22;2732;52.092;11.556;2023-07-29T16:52:44;30.40;71.80
5419;DHT22;2732;52.092;11.556;2023-07-29T16:57:45;29.90;72.30
5419;DHT22;2732;52.092;11.556;2023-07-29T17:02:46;29.50;73.30
5419;DHT22;2732;52.092;11.556;2023-07-29T17:07:47;29.20;74.30
5419;DHT22;2732;52.092;11.556;2023-07-29T17:12:49;29.00;73.80
5419;DHT22;2732;52.092;11.556;2023-07-29T17:17:50;28.80;73.50
5419;DHT22;2732;52.092;11.556;2023-07-29T17:22:52;28.80;73.90
5419;DHT22;2732;52.092;11.556;2023-07-29T17:27:53;28.50;74.00
5419;DHT22;2732;52.092;11.556;2023-07-29T17:32:55;28.40;74.60
5419;DHT22;2732;52.092;11.556;2023-07-29T17:37:56;28.20;75.20
5419;DHT22;2732;52.092;11.556;2023-07-29T17:42:57;28.00;76.00
5419;DHT22;2732;52.092;11.556;2023-07-29T17:47:57;27.90;75.80
5419;DHT22;2732;52.092;11.556;2023-07-29T17:52:58;27.60;76.40
5419;DHT22;2732;52.092;11.556;2023-07-29T17:57:59;27.30;77.60
5419;DHT22;2732;52.092;11.556;2023-07-29T18:03:00;27.00;78.40
5419;DHT22;2732;52.092;11.556;2023-07-29T18:08:00;26.70;79.20
5419;DHT22;2732;52.092;11.556;2023-07-29T18:13:01;26.40;79.90
5419;DHT22;2732;52.092;11.556;2023-07-29T18:18:02;26.10;80.40
5419;DHT22;2732;52.092;11.556;2023-07-29T18:23:04;25.80;81.40
5419;DHT22;2732;52.092;11.556;2023-07-29T18:28:05;25.50;82.40
5419;DHT22;2732;52.092;11.556;2023-07-29T18:33:05;25.30;82.90
5419;DHT22;2732;52.092;11.556;2023-07-29T18:38:10;25.10;84.00
5419;DHT22;2732;52.092;11.556;2023-07-29T18:43:11;24.80;84.90
5419;DHT22;2732;52.092;11.556;2023-07-29T18:48:12;24.60;85.70
5419;DHT22;2732;52.092;11.556;2023-07-29T18:53:13;24.40;86.50
5419;DHT22;2732;52.092;11.556;2023-07-29T18:58:13;24.20;87.20
5419;DHT22;2732;52.092;11.556;2023-07-29T19:03:15;24.10;87.90
5419;DHT22;2732;52.092;11.556;2023-07-29T19:08:15;23.90;88.20
5419;DHT22;2732;52.092;11.556;2023-07-29T19:13:16;23.80;88.80
5419;DHT22;2732;52.092;11.556;2023-07-29T19:18:17;23.60;89.70
5419;DHT22;2732;52.092;11.556;2023-07-29T19:23:21;23.50;90.30
5419;DHT22;2732;52.092;11.556;2023-07-29T19:28:22;23.30;90.50
5419;DHT22;2732;52.092;11.556;2023-07-29T19:33:22;23.20;90.90
5419;DHT22;2732;52.092;11.556;2023-07-29T19:38:23;23.00;91.10
5419;DHT22;2732;52.092;11.556;2023-07-29T19:43:24;22.90;91.30
5419;DHT22;2732;52.092;11.556;2023-07-29T19:48:25;22.70;91.30
5419;DHT22;2732;52.092;11.556;2023-07-29T19:53:30;22.60;91.90
5419;DHT22;2732;52.092;11.556;2023-07-29T19:58:31;22.50;92.00
5419;DHT22;2732;52.092;11.556;2023-07-29T20:03:32;22.40;92.50
5419;DHT22;2732;52.092;11.556;2023-07-29T20:08:33;22.20;92.80
5419;DHT22;2732;52.092;11.556;2023-07-29T20:13:33;22.10;93.20
5419;DHT22;2732;52.092;11.556;2023-07-29T20:18:34;22.00;93.70
5419;DHT22;2732;52.092;11.556;2023-07-29T20:23:35;21.90;94.10
5419;DHT22;2732;52.092;11.556;2023-07-29T20:28:35;21.80;94.60
5419;DHT22;2732;52.092;11.556;2023-07-29T20:33:36;21.70;94.80
5419;DHT22;2732;52.092;11.556;2023-07-29T20:38:37;21.60;95.10
5419;DHT22;2732;52.092;11.556;2023-07-29T20:43:37;21.50;95.50
5419;DHT22;2732;52.092;11.556;2023-07-29T20:48:38;21.40;96.00
5419;DHT22;2732;52.092;11.556;2023-07-29T20:53:38;21.20;96.30
5419;DHT22;2732;52.092;11.556;2023-07-29T20:58:39;21.10;96.70
5419;DHT22;2732;52.092;11.556;2023-07-29T21:03:40;21.00;97.00
5419;DHT22;2732;52.092;11.556;2023-07-29T21:08:41;20.90;97.20
5419;DHT22;2732;52.092;11.556;2023-07-29T21:13:41;20.80;97.40
5419;DHT22;2732;52.092;11.556;2023-07-29T21:18:42;20.60;97.70
5419;DHT22;2732;52.092;11.556;2023-07-29T21:23:43;20.50;98.00
5419;DHT22;2732;52.092;11.556;2023-07-29T21:28:44;20.40;98.30
5419;DHT22;2732;52.092;11.556;2023-07-29T21:33:45;20.30;98.40
5419;DHT22;2732;52.092;11.556;2023-07-29T21:38:45;20.20;98.40
5419;DHT22;2732;52.092;11.556;2023-07-29T21:43:46;20.10;98.60
5419;DHT22;2732;52.092;11.556;2023-07-29T21:48:47;20.00;98.70
5419;DHT22;2732;52.092;11.556;2023-07-29T21:53:47;19.90;98.80
5419;DHT22;2732;52.092;11.556;2023-07-29T21:58:51;19.80;99.00
5419;DHT22;2732;52.092;11.556;2023-07-29T22:03:52;19.70;99.10
5419;DHT22;2732;52.092;11.556;2023-07-29T22:08:53;19.60;99.40
5419;DHT22;2732;52.092;11.556;2023-07-29T22:13:53;19.50;99.50
5419;DHT22;2732;52.092;11.556;2023-07-29T22:18:54;19.40;99.80
5419;DHT22;2732;52.092;11.556;2023-07-29T22:23:55;19.30;99.80
5419;DHT22;2732;52.092;11.556;2023-07-29T22:28:55;19.20;99.90
5419;DHT22;2732;52.092;11.556;2023-07-29T22:33:56;19.20;99.90
5419;DHT22;2732;52.092;11.556;2023-07-29T22:38:57;19.10;99.90
5419;DHT22;2732;52.092;11.556;2023-07-29T22:43:58;19.00;99.90
5419;DHT22;2732;52.092;11.556;2023-07-29T22:48:59;18.90;99.90
5419;DHT22;2732;52.092;11.556;2023-07-29T22:53:59;18.80;99.90
5419;DHT22;2732;52.092;11.556;2023-07-29T22:59:00;18.80;99.90
5419;DHT22;2732;52.092;11.556;2023-07-29T23:04:00;18.70;99.90
5419;DHT22;2732;52.092;11.556;2023-07-29T23:09:01;18.60;99.90
5419;DHT22;2732;52.092;11.556;2023-07-29T23:14:02;18.50;99.90
5419;DHT22;2732;52.092;11.556;2023-07-29T23:19:02;18.40;99.90
5419;DHT22;2732;52.092;11.556;2023-07-29T23:24:04;18.30;99.90
5419;DHT22;2732;52.092;11.556;2023-07-29T23:29:05;18.20;99.90
5419;DHT22;2732;52.092;11.556;2023-07-29T23:34:06;18.10;99.90
5419;DHT22;2732;52.092;11.556;2023-07-29T23:39:06;18.00;99.90
5419;DHT22;2732;52.092;11.556;2023-07-29T23:44:07;17.90;99.90
5419;DHT22;2732;52.092;11.556;2023-07-29T23:49:07;17.90;99.90
5419;DHT22;2732;52.092;11.556;2023-07-29T23:54:08;17.80;99.90
5419;DHT22;2732;52.092;11.556;2023-07-29T23:59:10;17.80;99.90
